createdAt,value
2018-06-21T00:00:51.715Z,16.80
2018-06-21T00:03:56.234Z,16.70
2018-06-21T00:07:36.142Z,16.90
2018-06-21T00:10:41.755Z,16.90
2018-06-21T00:13:47.751Z,16.90
2018-06-21T00:16:53.678Z,16.90
2018-06-21T00:19:59.587Z,17.00
2018-06-21T00:23:10.664Z,16.90
2018-06-21T00:31:25.573Z,16.70
2018-06-21T00:39:36.020Z,16.50
2018-06-21T00:42:40.776Z,16.40
2018-06-21T00:45:54.639Z,16.30
2018-06-21T00:49:03.253Z,16.30
2018-06-21T00:52:07.932Z,16.30
2018-06-21T00:55:12.553Z,16.20
2018-06-21T00:58:17.237Z,16.20
2018-06-21T01:01:21.884Z,16.20
2018-06-21T01:04:28.853Z,16.30
2018-06-21T01:07:35.127Z,16.30
2018-06-21T01:10:40.602Z,16.10
2018-06-21T01:13:45.352Z,16.30
2018-06-21T01:16:50.051Z,16.10
2018-06-21T01:20:01.711Z,16.00
2018-06-21T01:27:07.368Z,16.00
2018-06-21T01:30:26.692Z,15.90
2018-06-21T01:33:41.304Z,15.80
2018-06-21T01:40:55.999Z,15.70
2018-06-21T01:44:08.351Z,15.70
2018-06-21T01:47:14.239Z,15.60
2018-06-21T01:50:21.495Z,15.50
2018-06-21T01:53:28.649Z,15.40
2018-06-21T01:56:38.111Z,15.50
2018-06-21T01:59:43.647Z,15.70
2018-06-21T02:02:48.482Z,16.00
2018-06-21T02:05:56.999Z,15.80
2018-06-21T02:12:08.727Z,15.70
2018-06-21T02:15:13.965Z,15.50
2018-06-21T02:18:26.915Z,15.60
2018-06-21T02:21:31.669Z,15.70
2018-06-21T02:24:41.177Z,15.60
2018-06-21T02:27:51.192Z,15.60
2018-06-21T02:30:59.257Z,15.70
2018-06-21T02:37:12.057Z,15.40
2018-06-21T02:43:33.452Z,15.50
2018-06-21T02:46:46.922Z,15.40
2018-06-21T02:50:05.341Z,15.30
2018-06-21T02:53:13.533Z,15.30
2018-06-21T02:56:27.119Z,15.20
2018-06-21T02:59:52.882Z,15.20
2018-06-21T03:03:01.926Z,15.20
2018-06-21T03:06:11.154Z,15.20
2018-06-21T03:09:22.496Z,15.20
2018-06-21T03:12:29.631Z,15.30
2018-06-21T03:15:34.388Z,15.30
2018-06-21T03:18:48.111Z,15.20
2018-06-21T03:21:53.277Z,15.40
2018-06-21T03:24:57.910Z,15.40
2018-06-21T03:28:02.366Z,15.40
2018-06-21T03:31:06.704Z,15.30
2018-06-21T03:34:10.961Z,15.30
2018-06-21T03:37:15.977Z,15.40
2018-06-21T03:40:20.285Z,15.50
2018-06-21T03:43:25.016Z,15.80
2018-06-21T03:46:29.289Z,15.90
2018-06-21T03:49:33.559Z,15.80
2018-06-21T03:52:37.904Z,15.90
2018-06-21T03:55:42.367Z,15.80
2018-06-21T03:58:46.560Z,15.90
2018-06-21T04:01:51.309Z,15.60
2018-06-21T04:04:56.199Z,15.70
2018-06-21T04:08:00.807Z,15.80
2018-06-21T04:11:06.492Z,15.90
2018-06-21T04:14:10.930Z,15.90
2018-06-21T04:17:15.572Z,15.90
2018-06-21T04:20:20.186Z,16.00
2018-06-21T04:23:25.167Z,16.10
2018-06-21T04:26:29.555Z,16.20
2018-06-21T04:29:34.346Z,16.10
2018-06-21T04:32:39.172Z,16.20
2018-06-21T04:35:43.617Z,16.40
2018-06-21T04:38:48.073Z,16.50
2018-06-21T04:41:52.760Z,16.50
2018-06-21T04:44:57.299Z,16.60
2018-06-21T04:48:01.792Z,16.60
2018-06-21T04:51:07.227Z,16.70
2018-06-21T04:54:12.786Z,16.70
2018-06-21T04:57:17.545Z,16.90
2018-06-21T05:00:22.589Z,17.00
2018-06-21T05:03:33.249Z,17.10
2018-06-21T05:06:39.137Z,17.20
2018-06-21T05:09:45.861Z,17.30
2018-06-21T05:12:51.619Z,17.30
2018-06-21T05:15:56.674Z,17.40
2018-06-21T05:19:02.575Z,17.50
2018-06-21T05:22:08.208Z,17.60
2018-06-21T05:25:13.617Z,17.90
2018-06-21T05:28:18.393Z,18.10
2018-06-21T05:31:23.485Z,18.30
2018-06-21T05:34:29.243Z,18.60
2018-06-21T05:37:34.777Z,18.80
2018-06-21T05:40:41.354Z,19.10
2018-06-21T05:43:48.573Z,19.50
2018-06-21T05:46:53.325Z,20.00
2018-06-21T05:49:58.424Z,20.60
2018-06-21T05:53:03.686Z,21.10
2018-06-21T05:56:08.735Z,21.30
2018-06-21T05:59:13.530Z,21.40
2018-06-21T06:02:18.092Z,21.60
2018-06-21T06:05:23.119Z,21.80
2018-06-21T06:08:28.161Z,23.70
2018-06-21T06:11:33.072Z,24.50
2018-06-21T06:14:37.612Z,24.70
2018-06-21T06:17:42.205Z,25.10
2018-06-21T06:20:48.141Z,25.80
2018-06-21T06:23:52.640Z,26.00
2018-06-21T06:26:57.786Z,27.00
2018-06-21T06:30:02.586Z,27.70
2018-06-21T06:33:07.401Z,28.50
2018-06-21T06:36:11.688Z,28.60
2018-06-21T06:39:18.597Z,29.10
2018-06-21T06:42:23.088Z,29.80
2018-06-21T06:45:27.881Z,29.70
2018-06-21T06:48:32.586Z,30.20
2018-06-21T06:51:37.301Z,30.10
2018-06-21T06:54:42.144Z,30.10
2018-06-21T06:57:46.772Z,30.60
2018-06-21T07:00:51.390Z,30.80
2018-06-21T07:03:56.270Z,31.80
2018-06-21T07:07:01.040Z,32.50
2018-06-21T07:10:05.710Z,33.40
2018-06-21T07:13:10.033Z,34.10
2018-06-21T07:16:14.562Z,35.20
2018-06-21T07:19:19.103Z,34.70
2018-06-21T07:22:23.644Z,32.80
2018-06-21T07:25:28.144Z,29.40
2018-06-21T07:28:32.692Z,29.00
2018-06-21T07:31:37.435Z,29.30
2018-06-21T07:34:42.355Z,31.20
2018-06-21T07:37:47.512Z,31.90
2018-06-21T07:40:52.592Z,32.70
2018-06-21T07:43:57.444Z,31.70
2018-06-21T07:47:02.500Z,31.80
2018-06-21T07:50:08.064Z,32.10
2018-06-21T07:53:12.685Z,32.20
2018-06-21T07:56:17.231Z,33.00
2018-06-21T07:59:21.814Z,33.60
2018-06-21T08:02:26.483Z,33.40
2018-06-21T08:05:31.179Z,32.30
2018-06-21T08:08:42.824Z,33.30
2018-06-21T08:11:47.396Z,33.50
2018-06-21T08:14:51.958Z,32.50
2018-06-21T08:17:56.480Z,32.50
2018-06-21T08:21:00.815Z,32.20
2018-06-21T08:24:05.270Z,31.40
2018-06-21T08:27:10.111Z,30.70
2018-06-21T08:30:15.533Z,30.40
2018-06-21T08:33:20.230Z,30.20
2018-06-21T08:36:24.828Z,30.10
2018-06-21T08:39:29.532Z,30.00
2018-06-21T08:42:33.640Z,29.70
2018-06-21T08:45:38.140Z,30.00
2018-06-21T08:48:42.832Z,29.50
2018-06-21T08:51:49.364Z,30.20
2018-06-21T08:54:53.488Z,31.00
2018-06-21T08:57:57.613Z,31.60
2018-06-21T09:01:02.501Z,31.10
2018-06-21T09:04:06.699Z,30.30
2018-06-21T09:07:11.267Z,29.80
2018-06-21T09:10:15.660Z,29.80
2018-06-21T09:13:20.536Z,29.60
2018-06-21T09:16:24.674Z,29.10
2018-06-21T09:19:28.910Z,29.50
2018-06-21T09:22:33.592Z,29.10
2018-06-21T09:25:37.860Z,28.70
2018-06-21T09:28:42.181Z,28.00
2018-06-21T09:31:46.373Z,27.60
2018-06-21T09:34:50.485Z,27.50
2018-06-21T09:38:00.061Z,26.90
2018-06-21T09:42:13.569Z,26.80
2018-06-21T09:45:23.251Z,27.40
2018-06-21T09:48:29.375Z,27.60
2018-06-21T09:51:33.528Z,27.30
2018-06-21T09:54:37.996Z,26.60
2018-06-21T09:57:42.737Z,25.80
2018-06-21T10:00:53.063Z,25.10
2018-06-21T10:03:57.252Z,24.80
2018-06-21T10:07:02.699Z,25.00
2018-06-21T10:10:06.804Z,25.40
2018-06-21T10:13:10.921Z,26.50
2018-06-21T10:16:15.050Z,27.10
2018-06-21T10:19:19.198Z,26.40
2018-06-21T10:22:23.508Z,24.30
2018-06-21T10:25:27.861Z,22.20
2018-06-21T10:28:33.522Z,20.60
2018-06-21T10:31:37.671Z,19.60
2018-06-21T10:34:41.996Z,18.20
2018-06-21T10:37:46.379Z,17.10
2018-06-21T10:40:50.550Z,16.80
2018-06-21T10:43:55.061Z,16.70
2018-06-21T10:46:59.509Z,16.80
2018-06-21T10:50:04.204Z,16.80
2018-06-21T10:53:08.569Z,16.80
2018-06-21T10:56:12.783Z,16.50
2018-06-21T10:59:16.921Z,16.40
2018-06-21T11:02:21.145Z,16.40
2018-06-21T11:05:25.416Z,16.30
2018-06-21T11:08:29.823Z,16.30
2018-06-21T11:11:33.959Z,16.20
2018-06-21T11:14:38.635Z,16.40
2018-06-21T11:17:43.394Z,16.50
2018-06-21T11:20:47.956Z,16.70
2018-06-21T11:23:52.818Z,16.90
2018-06-21T11:26:57.548Z,17.00
2018-06-21T11:30:02.041Z,17.30
2018-06-21T11:33:06.998Z,17.70
2018-06-21T11:36:11.462Z,17.90
2018-06-21T11:39:16.215Z,17.80
2018-06-21T11:42:20.614Z,18.00
2018-06-21T11:45:24.903Z,18.20
2018-06-21T11:48:29.555Z,18.50
2018-06-21T11:51:33.674Z,18.90
2018-06-21T11:54:37.848Z,19.20
2018-06-21T11:57:42.316Z,19.50
2018-06-21T12:00:46.765Z,19.80
2018-06-21T12:06:55.276Z,20.60
2018-06-21T12:09:59.822Z,21.00
2018-06-21T12:13:04.636Z,21.20
2018-06-21T12:16:09.168Z,21.10
2018-06-21T12:19:13.567Z,20.70
2018-06-21T12:22:18.248Z,20.50
2018-06-21T12:25:23.542Z,20.00
2018-06-21T12:28:28.961Z,19.60
2018-06-21T12:31:33.377Z,19.40
2018-06-21T12:34:37.891Z,19.80
2018-06-21T12:37:42.539Z,20.10
2018-06-21T12:40:46.855Z,20.60
2018-06-21T12:43:51.117Z,20.70
2018-06-21T12:46:56.545Z,20.50
2018-06-21T12:50:00.938Z,20.70
2018-06-21T12:53:05.832Z,20.70
2018-06-21T12:56:11.873Z,20.60
2018-06-21T12:59:16.862Z,20.50
2018-06-21T13:02:22.231Z,20.40
2018-06-21T13:05:26.864Z,20.80
2018-06-21T13:08:42.873Z,20.80
2018-06-21T13:13:01.436Z,20.50
2018-06-21T13:16:06.379Z,20.50
2018-06-21T13:19:11.437Z,20.60
2018-06-21T13:22:16.425Z,20.80
2018-06-21T13:25:21.229Z,20.90
2018-06-21T13:28:25.802Z,20.80
2018-06-21T13:31:30.677Z,21.10
2018-06-21T13:34:36.428Z,21.30
2018-06-21T13:37:41.713Z,21.40
2018-06-21T13:40:46.863Z,21.00
2018-06-21T13:43:54.369Z,21.10
2018-06-21T13:46:59.499Z,21.20
2018-06-21T13:50:04.649Z,20.90
2018-06-21T13:53:09.721Z,20.70
2018-06-21T13:56:14.431Z,20.90
2018-06-21T13:59:20.104Z,20.70
2018-06-21T14:02:24.754Z,20.50
2018-06-21T14:05:29.693Z,20.70
2018-06-21T14:08:34.394Z,20.50
2018-06-21T14:11:39.002Z,20.50
2018-06-21T14:14:43.474Z,20.60
2018-06-21T14:17:49.858Z,20.80
2018-06-21T14:20:55.884Z,20.70
2018-06-21T14:24:01.481Z,20.50
2018-06-21T14:27:06.772Z,20.50
2018-06-21T14:30:12.782Z,20.60
2018-06-21T14:33:17.359Z,20.90
2018-06-21T14:36:24.106Z,20.90
2018-06-21T14:39:29.093Z,20.50
2018-06-21T14:42:34.113Z,20.30
2018-06-21T14:45:38.801Z,20.10
2018-06-21T14:48:44.146Z,20.00
2018-06-21T14:51:48.846Z,20.20
2018-06-21T14:54:54.042Z,20.00
2018-06-21T14:57:59.020Z,20.00
2018-06-21T15:01:04.381Z,20.00
2018-06-21T15:04:08.848Z,19.70
2018-06-21T15:07:13.503Z,19.80
2018-06-21T15:10:18.436Z,19.80
2018-06-21T15:13:23.565Z,19.50
2018-06-21T15:16:27.914Z,19.40
2018-06-21T15:19:33.170Z,19.50
2018-06-21T15:22:37.717Z,19.50
2018-06-21T15:25:42.012Z,19.60
2018-06-21T15:28:47.216Z,19.50
2018-06-21T15:31:51.906Z,19.20
2018-06-21T15:34:56.740Z,19.10
2018-06-21T15:38:01.128Z,18.80
2018-06-21T15:41:06.041Z,18.80
2018-06-21T15:44:10.746Z,19.10
2018-06-21T15:47:15.473Z,19.30
2018-06-21T15:50:20.508Z,19.20
2018-06-21T15:53:25.506Z,19.00
2018-06-21T15:56:29.713Z,19.10
2018-06-21T15:59:33.917Z,19.00
2018-06-21T16:02:38.105Z,19.10
2018-06-21T16:05:43.054Z,19.00
2018-06-21T16:08:47.444Z,19.00
2018-06-21T16:11:52.730Z,18.90
2018-06-21T16:14:58.085Z,18.90
2018-06-21T16:18:02.978Z,18.90
2018-06-21T16:21:07.924Z,18.90
2018-06-21T16:24:12.580Z,18.90
2018-06-21T16:27:16.776Z,18.90
2018-06-21T16:30:21.161Z,18.80
2018-06-21T16:33:26.180Z,18.90
2018-06-21T16:36:32.772Z,18.80
2018-06-21T16:39:37.456Z,18.30
2018-06-21T16:42:43.171Z,18.30
2018-06-21T16:45:48.014Z,18.30
2018-06-21T16:48:52.495Z,18.30
2018-06-21T16:51:57.826Z,18.20
2018-06-21T16:55:03.198Z,18.00
2018-06-21T16:58:08.536Z,17.80
2018-06-21T17:01:13.322Z,18.00
2018-06-21T17:04:18.008Z,17.90
2018-06-21T17:07:22.758Z,17.90
2018-06-21T17:10:27.595Z,18.00
2018-06-21T17:13:33.245Z,18.10
2018-06-21T17:16:40.133Z,18.00
2018-06-21T17:19:44.900Z,18.00
2018-06-21T17:22:49.981Z,17.90
2018-06-21T17:25:55.387Z,17.80
2018-06-21T17:29:01.384Z,17.40
2018-06-21T17:32:08.221Z,17.20
2018-06-21T17:35:13.865Z,17.10
2018-06-21T17:38:19.426Z,17.10
2018-06-21T17:41:24.449Z,17.20
2018-06-21T17:44:28.963Z,17.30
2018-06-21T17:47:35.043Z,17.20
2018-06-21T17:50:40.325Z,17.20
2018-06-21T17:53:45.099Z,17.10
2018-06-21T17:56:50.481Z,17.00
2018-06-21T17:59:54.948Z,16.80
2018-06-21T18:02:59.504Z,16.70
2018-06-21T18:06:04.024Z,16.50
2018-06-21T18:09:09.484Z,16.50
2018-06-21T18:12:13.953Z,16.50
2018-06-21T18:15:18.715Z,16.50
2018-06-21T18:18:23.088Z,16.60
2018-06-21T18:21:27.503Z,16.60
2018-06-21T18:24:31.758Z,16.50
2018-06-21T18:27:36.722Z,16.40
2018-06-21T18:30:41.615Z,16.30
2018-06-21T18:33:46.078Z,16.10
2018-06-21T18:36:50.489Z,15.90
2018-06-21T18:39:54.846Z,15.90
2018-06-21T18:42:59.212Z,15.80
2018-06-21T18:46:03.551Z,15.80
2018-06-21T18:49:08.180Z,15.70
2018-06-21T18:52:12.833Z,15.60
2018-06-21T18:55:17.288Z,15.70
2018-06-21T18:58:22.381Z,15.60
2018-06-21T19:01:27.409Z,15.50
2018-06-21T19:04:31.928Z,15.50
2018-06-21T19:10:50.851Z,15.30
2018-06-21T19:14:02.342Z,15.20
2018-06-21T19:17:06.709Z,15.10
2018-06-21T19:20:11.814Z,15.00
2018-06-21T19:23:16.492Z,15.00
2018-06-21T19:26:21.237Z,14.90
2018-06-21T19:32:30.267Z,14.80
2018-06-21T19:35:35.985Z,14.80
2018-06-21T19:38:52.758Z,14.70
2018-06-21T19:41:59.205Z,14.80
2018-06-21T19:45:05.932Z,14.80
2018-06-21T19:48:13.333Z,14.90
2018-06-21T19:51:21.929Z,14.90
2018-06-21T19:54:27.280Z,14.90
2018-06-21T19:57:33.292Z,14.80
2018-06-21T20:00:38.948Z,14.70
2018-06-21T20:03:44.356Z,14.70
2018-06-21T20:06:49.315Z,14.50
2018-06-21T20:09:54.176Z,14.40
2018-06-21T20:12:58.747Z,14.20
2018-06-21T20:16:04.479Z,14.10
2018-06-21T20:19:15.470Z,14.10
2018-06-21T20:22:22.668Z,14.20
2018-06-21T20:25:28.569Z,14.20
2018-06-21T20:28:32.888Z,14.30
2018-06-21T20:31:37.854Z,14.30
2018-06-21T20:34:43.298Z,14.20
2018-06-21T20:37:49.062Z,14.10
2018-06-21T20:40:53.383Z,14.00
2018-06-21T20:43:58.838Z,13.90
2018-06-21T20:47:03.385Z,13.90
2018-06-21T20:50:08.033Z,13.70
2018-06-21T20:53:12.279Z,13.60
2018-06-21T20:56:17.462Z,13.50
2018-06-21T20:59:22.523Z,13.50
2018-06-21T21:02:27.006Z,13.50
2018-06-21T21:05:31.827Z,13.40
2018-06-21T21:08:36.418Z,13.40
2018-06-21T21:11:41.370Z,13.40
2018-06-21T21:14:46.190Z,13.40
2018-06-21T21:17:50.923Z,13.30
2018-06-21T21:20:55.853Z,13.30
2018-06-21T21:24:13.197Z,13.30
2018-06-21T21:27:21.608Z,13.20
2018-06-21T21:30:26.833Z,13.10
2018-06-21T21:33:31.589Z,13.10
2018-06-21T21:36:36.448Z,13.10
2018-06-21T21:39:42.000Z,13.10
2018-06-21T21:42:46.674Z,13.10
2018-06-21T21:45:51.580Z,12.90
2018-06-21T21:48:56.413Z,12.80
2018-06-21T21:52:04.005Z,12.80
2018-06-21T21:55:10.231Z,12.80
2018-06-21T21:58:17.783Z,12.80
2018-06-21T22:01:23.151Z,13.00
2018-06-21T22:04:28.513Z,13.10
2018-06-21T22:07:34.292Z,13.00
2018-06-21T22:10:39.732Z,12.80
2018-06-21T22:13:47.941Z,12.00
2018-06-21T22:16:52.699Z,11.80
2018-06-21T22:20:00.500Z,11.60
2018-06-21T22:23:05.433Z,11.40
2018-06-21T22:26:16.909Z,11.40
2018-06-21T22:29:23.713Z,11.30
2018-06-21T22:32:28.493Z,11.20
2018-06-21T22:35:43.739Z,11.00
2018-06-21T22:40:04.802Z,11.10
2018-06-21T22:43:29.369Z,11.00
2018-06-21T22:46:48.848Z,10.90
2018-06-21T22:50:23.111Z,10.90
2018-06-21T22:53:27.844Z,11.00
2018-06-21T22:56:34.718Z,11.00
2018-06-21T22:59:55.522Z,11.10
2018-06-21T23:03:01.008Z,11.20
2018-06-21T23:06:09.034Z,11.30
2018-06-21T23:09:23.577Z,11.20
2018-06-21T23:12:28.191Z,11.30
2018-06-21T23:15:32.821Z,11.20
2018-06-21T23:18:48.643Z,11.10
2018-06-21T23:21:53.188Z,11.10
2018-06-21T23:24:57.898Z,11.10
2018-06-21T23:28:02.681Z,11.00
2018-06-21T23:31:08.586Z,11.30
2018-06-21T23:34:16.489Z,11.20
2018-06-21T23:37:24.415Z,11.30
2018-06-21T23:40:29.146Z,11.10
2018-06-21T23:44:04.998Z,11.10
2018-06-21T23:47:13.082Z,11.10
2018-06-21T23:50:17.794Z,10.90
2018-06-21T23:53:23.691Z,10.80
2018-06-21T23:56:28.312Z,10.80
2018-06-21T23:59:32.864Z,10.70
